createdAt,value
2018-05-09T00:00:32.251Z,4.57
2018-05-09T00:02:59.805Z,4.00
2018-05-09T00:05:28.090Z,4.00
2018-05-09T00:07:56.393Z,4.30
2018-05-09T00:10:25.142Z,4.77
2018-05-09T00:12:52.676Z,6.87
2018-05-09T00:15:20.193Z,4.20
2018-05-09T00:17:47.745Z,5.30
2018-05-09T00:20:16.050Z,4.17
2018-05-09T00:22:43.568Z,4.80
2018-05-09T00:25:11.173Z,4.00
2018-05-09T00:27:38.689Z,4.43
2018-05-09T00:30:06.226Z,4.53
2018-05-09T00:32:33.745Z,4.30
2018-05-09T00:35:01.292Z,3.80
2018-05-09T00:37:29.577Z,4.70
2018-05-09T00:39:57.109Z,4.43
2018-05-09T00:42:24.718Z,3.73
2018-05-09T00:44:52.268Z,3.83
2018-05-09T00:47:19.790Z,4.70
2018-05-09T00:49:48.124Z,4.10
2018-05-09T00:52:15.648Z,5.20
2018-05-09T00:54:43.948Z,4.40
2018-05-09T00:57:11.468Z,4.73
2018-05-09T00:59:39.012Z,4.70
2018-05-09T01:02:06.532Z,4.20
2018-05-09T01:04:34.836Z,4.67
2018-05-09T01:07:02.353Z,4.47
2018-05-09T01:09:29.905Z,5.10
2018-05-09T01:11:57.425Z,4.20
2018-05-09T01:14:24.941Z,4.43
2018-05-09T01:16:53.264Z,4.50
2018-05-09T01:19:20.796Z,4.80
2018-05-09T01:21:51.051Z,5.30
2018-05-09T01:24:18.568Z,4.50
2018-05-09T01:26:46.871Z,4.03
2018-05-09T01:29:14.395Z,4.70
2018-05-09T01:31:43.437Z,3.80
2018-05-09T01:34:10.952Z,3.40
2018-05-09T01:36:38.577Z,4.83
2018-05-09T01:39:06.816Z,4.60
2018-05-09T01:41:35.123Z,4.60
2018-05-09T01:44:02.642Z,4.93
2018-05-09T01:46:31.686Z,5.40
2018-05-09T01:48:59.203Z,4.03
2018-05-09T01:51:26.741Z,4.87
2018-05-09T01:53:54.257Z,5.00
2018-05-09T01:56:21.814Z,4.80
2018-05-09T01:58:49.351Z,4.07
2018-05-09T02:01:17.638Z,4.40
2018-05-09T02:03:45.938Z,4.40
2018-05-09T02:06:13.533Z,4.30
2018-05-09T02:08:41.074Z,5.00
2018-05-09T02:11:08.640Z,4.60
2018-05-09T02:13:36.180Z,5.03
2018-05-09T02:16:03.763Z,5.00
2018-05-09T02:18:31.296Z,4.60
2018-05-09T02:20:59.578Z,4.37
2018-05-09T02:23:27.112Z,4.77
2018-05-09T02:25:55.441Z,4.37
2018-05-09T02:28:23.006Z,4.33
2018-05-09T02:30:50.562Z,4.10
2018-05-09T02:33:18.137Z,4.40
2018-05-09T02:35:45.689Z,5.67
2018-05-09T02:38:13.236Z,5.40
2018-05-09T02:40:40.812Z,5.27
2018-05-09T02:43:08.328Z,5.03
2018-05-09T02:45:35.861Z,4.77
2018-05-09T02:48:03.378Z,4.70
2018-05-09T02:50:31.689Z,4.80
2018-05-09T02:52:59.208Z,4.90
2018-05-09T02:55:27.516Z,4.60
2018-05-09T02:57:55.033Z,5.03
2018-05-09T03:00:22.589Z,4.50
2018-05-09T03:02:50.115Z,4.70
2018-05-09T03:05:17.652Z,4.37
2018-05-09T03:07:45.168Z,4.73
2018-05-09T03:10:12.804Z,4.77
2018-05-09T03:12:40.321Z,5.00
2018-05-09T03:15:08.640Z,4.93
2018-05-09T03:17:36.157Z,4.77
2018-05-09T03:20:04.576Z,3.73
2018-05-09T03:22:32.089Z,5.77
2018-05-09T03:24:59.609Z,5.40
2018-05-09T03:27:27.145Z,5.53
2018-05-09T03:29:54.702Z,4.33
2018-05-09T03:32:22.979Z,4.70
2018-05-09T03:34:51.256Z,3.97
2018-05-09T03:37:19.557Z,4.37
2018-05-09T03:39:47.076Z,4.93
2018-05-09T03:42:14.612Z,4.53
2018-05-09T03:44:42.120Z,5.47
2018-05-09T03:47:10.425Z,4.80
2018-05-09T03:49:37.944Z,4.77
2018-05-09T03:52:06.246Z,5.30
2018-05-09T03:54:33.763Z,4.73
2018-05-09T03:57:01.297Z,4.90
2018-05-09T03:59:28.812Z,5.13
2018-05-09T04:02:09.078Z,4.27
2018-05-09T04:04:49.264Z,4.57
2018-05-09T04:07:28.686Z,5.00
2018-05-09T04:09:56.968Z,5.20
2018-05-09T04:12:25.372Z,4.23
2018-05-09T04:14:52.964Z,4.30
2018-05-09T04:17:21.206Z,5.10
2018-05-09T04:19:48.720Z,4.20
2018-05-09T04:22:17.760Z,6.50
2018-05-09T04:24:45.333Z,5.10
2018-05-09T04:27:12.848Z,4.43
2018-05-09T04:29:40.387Z,4.87
2018-05-09T04:32:07.905Z,4.00
2018-05-09T04:34:35.443Z,4.80
2018-05-09T04:37:03.725Z,5.00
2018-05-09T04:39:32.028Z,4.80
2018-05-09T04:41:59.633Z,5.00
2018-05-09T04:44:27.864Z,5.23
2018-05-09T04:46:55.552Z,5.33
2018-05-09T04:49:23.108Z,4.53
2018-05-09T04:51:50.626Z,4.87
2018-05-09T04:54:18.922Z,5.10
2018-05-09T04:56:46.448Z,4.90
2018-05-09T04:59:14.067Z,4.70
2018-05-09T05:01:41.620Z,5.20
2018-05-09T05:04:09.134Z,3.93
2018-05-09T05:06:37.456Z,4.20
2018-05-09T05:09:05.787Z,4.10
2018-05-09T05:11:33.323Z,4.63
2018-05-09T05:14:00.841Z,4.63
2018-05-09T05:16:29.137Z,4.83
2018-05-09T05:18:56.649Z,4.50
2018-05-09T05:21:24.179Z,3.77
2018-05-09T05:23:51.688Z,5.10
2018-05-09T05:26:19.988Z,4.83
2018-05-09T05:28:47.505Z,4.57
2018-05-09T05:31:15.036Z,4.10
2018-05-09T05:33:42.547Z,5.70
2018-05-09T05:36:10.853Z,4.43
2018-05-09T05:38:38.369Z,4.50
2018-05-09T05:41:06.667Z,4.67
2018-05-09T05:43:34.361Z,4.60
2018-05-09T05:46:01.896Z,4.80
2018-05-09T05:48:29.405Z,4.53
2018-05-09T05:50:57.031Z,4.50
2018-05-09T05:53:24.547Z,6.23
2018-05-09T05:55:52.088Z,4.77
2018-05-09T05:58:19.602Z,3.90
2018-05-09T06:00:47.116Z,4.70
2018-05-09T06:03:14.653Z,4.70
2018-05-09T06:05:42.172Z,4.80
2018-05-09T06:08:10.473Z,4.40
2018-05-09T06:10:37.989Z,4.70
2018-05-09T06:13:05.533Z,4.60
2018-05-09T06:15:33.054Z,3.77
2018-05-09T06:18:00.590Z,4.30
2018-05-09T06:20:28.873Z,5.00
2018-05-09T06:22:57.177Z,5.50
2018-05-09T06:25:24.734Z,5.17
2018-05-09T06:27:52.296Z,4.80
2018-05-09T06:30:19.804Z,4.77
2018-05-09T06:32:47.350Z,4.17
2018-05-09T06:35:14.860Z,4.57
2018-05-09T06:37:42.401Z,5.53
2018-05-09T06:40:10.696Z,5.00
2018-05-09T06:42:38.995Z,4.77
2018-05-09T06:45:06.556Z,4.67
2018-05-09T06:47:34.113Z,4.57
2018-05-09T06:50:01.718Z,4.83
2018-05-09T06:52:29.960Z,5.03
2018-05-09T06:54:57.500Z,5.20
2018-05-09T06:57:25.085Z,5.87
2018-05-09T06:59:52.674Z,5.17
2018-05-09T07:02:20.149Z,4.80
2018-05-09T07:04:47.675Z,5.60
2018-05-09T07:07:15.188Z,5.10
2018-05-09T07:09:43.487Z,5.07
2018-05-09T07:12:11.008Z,5.30
2018-05-09T07:14:38.540Z,5.40
2018-05-09T07:17:06.057Z,4.67
2018-05-09T07:19:34.361Z,4.73
2018-05-09T07:22:01.871Z,5.10
2018-05-09T07:24:29.403Z,3.80
2018-05-09T07:26:56.915Z,4.57
2018-05-09T07:29:25.227Z,4.93
2018-05-09T07:31:52.779Z,5.03
2018-05-09T07:34:20.291Z,4.80
2018-05-09T07:36:48.599Z,4.40
2018-05-09T07:39:16.120Z,4.30
2018-05-09T07:41:43.660Z,4.60
2018-05-09T07:44:11.180Z,4.87
2018-05-09T07:46:38.717Z,4.90
2018-05-09T07:49:06.996Z,4.90
2018-05-09T07:51:35.296Z,4.80
2018-05-09T07:54:02.818Z,4.90
2018-05-09T07:56:30.356Z,5.33
2018-05-09T07:58:57.871Z,5.30
2018-05-09T08:01:25.411Z,5.57
2018-05-09T08:03:53.698Z,5.20
2018-05-09T08:06:22.000Z,4.93
2018-05-09T08:08:49.572Z,5.60
2018-05-09T08:11:17.113Z,5.00
2018-05-09T08:13:44.633Z,4.97
2018-05-09T08:16:12.176Z,5.97
2018-05-09T08:18:39.692Z,5.43
2018-05-09T08:21:08.009Z,4.93
2018-05-09T08:23:35.524Z,5.33
2018-05-09T08:26:03.833Z,4.40
2018-05-09T08:28:31.348Z,6.10
2018-05-09T08:30:59.637Z,5.60
2018-05-09T08:33:27.941Z,5.03
2018-05-09T08:35:55.457Z,5.63
2018-05-09T08:38:23.018Z,5.30
2018-05-09T08:40:50.536Z,5.33
2018-05-09T08:43:18.094Z,5.37
2018-05-09T08:45:45.609Z,5.50
2018-05-09T08:48:13.912Z,5.50
2018-05-09T08:50:41.437Z,5.60
2018-05-09T08:53:09.053Z,5.60
2018-05-09T08:55:36.580Z,5.80
2018-05-09T08:58:04.875Z,5.37
2018-05-09T09:00:32.394Z,5.83
2018-05-09T09:02:59.934Z,5.30
2018-05-09T09:05:27.462Z,5.00
2018-05-09T09:07:55.016Z,5.93
2018-05-09T09:10:22.533Z,5.80
2018-05-09T09:12:50.056Z,5.90
2018-05-09T09:15:17.648Z,5.57
2018-05-09T09:17:45.121Z,5.20
2018-05-09T09:20:14.163Z,7.60
2018-05-09T09:22:41.681Z,5.80
2018-05-09T09:25:09.212Z,5.07
2018-05-09T09:27:36.727Z,5.80
2018-05-09T09:30:05.022Z,5.70
2018-05-09T09:32:32.538Z,5.67
2018-05-09T09:35:00.073Z,4.50
2018-05-09T09:37:27.589Z,5.47
2018-05-09T09:39:55.884Z,4.00
2018-05-09T09:42:23.401Z,4.90
2018-05-09T09:44:52.449Z,4.80
2018-05-09T09:47:19.964Z,5.27
2018-05-09T09:49:48.268Z,4.83
2018-05-09T09:52:15.782Z,4.53
2018-05-09T09:54:43.317Z,4.53
2018-05-09T09:57:10.833Z,4.53
2018-05-09T09:59:39.140Z,4.10
2018-05-09T10:02:06.655Z,4.30
2018-05-09T10:04:34.181Z,4.50
2018-05-09T10:07:01.721Z,4.37
2018-05-09T10:09:29.237Z,4.07
2018-05-09T10:11:56.771Z,4.77
2018-05-09T10:14:24.288Z,4.90
2018-05-09T10:16:51.821Z,4.50
2018-05-09T10:19:20.109Z,5.60
2018-05-09T10:21:48.411Z,4.80
2018-05-09T10:24:15.931Z,3.73
2018-05-09T10:26:43.470Z,4.67
2018-05-09T10:29:10.986Z,3.73
2018-05-09T10:31:38.520Z,4.60
2018-05-09T10:34:06.037Z,3.97
2018-05-09T10:36:33.575Z,4.40
2018-05-09T10:39:01.092Z,4.50
2018-05-09T10:41:28.626Z,4.50
2018-05-09T10:43:56.142Z,3.70
2018-05-09T10:46:24.445Z,5.17
2018-05-09T10:48:51.965Z,4.80
2018-05-09T10:51:20.244Z,5.03
2018-05-09T10:53:48.547Z,4.63
2018-05-09T10:56:16.059Z,4.40
2018-05-09T10:58:43.608Z,5.13
2018-05-09T11:01:11.125Z,3.97
2018-05-09T11:03:38.652Z,5.93
2018-05-09T11:06:06.170Z,4.50
2018-05-09T11:08:33.705Z,5.20
2018-05-09T11:11:01.227Z,4.83
2018-05-09T11:13:29.521Z,4.70
2018-05-09T11:15:57.828Z,4.80
2018-05-09T11:18:25.360Z,4.60
2018-05-09T11:20:52.878Z,4.70
2018-05-09T11:23:20.420Z,4.50
2018-05-09T11:25:47.935Z,4.90
2018-05-09T11:28:15.472Z,5.57
2018-05-09T11:30:42.988Z,4.10
2018-05-09T11:33:10.538Z,4.50
2018-05-09T11:35:38.816Z,5.27
2018-05-09T11:38:07.097Z,4.20
2018-05-09T11:40:35.405Z,4.63
2018-05-09T11:43:02.924Z,3.57
2018-05-09T11:45:30.457Z,4.07
2018-05-09T11:47:57.967Z,4.30
2018-05-09T11:50:26.265Z,3.90
2018-05-09T11:52:53.780Z,3.77
2018-05-09T11:55:22.821Z,3.60
2018-05-09T11:57:50.337Z,3.60
2018-05-09T12:00:17.881Z,3.20
2018-05-09T12:02:45.404Z,3.80
2018-05-09T12:05:12.939Z,4.47
2018-05-09T12:07:41.216Z,3.50
2018-05-09T12:10:09.516Z,3.70
2018-05-09T12:12:37.092Z,3.30
2018-05-09T12:15:04.629Z,3.13
2018-05-09T12:17:32.149Z,2.93
2018-05-09T12:19:59.676Z,3.97
2018-05-09T12:22:27.184Z,3.40
2018-05-09T12:24:54.732Z,3.57
2018-05-09T12:27:23.116Z,3.70
2018-05-09T12:29:51.404Z,3.17
2018-05-09T12:32:19.265Z,3.43
2018-05-09T12:34:46.787Z,3.73
2018-05-09T12:37:14.320Z,3.40
2018-05-09T12:39:42.601Z,4.23
2018-05-09T12:42:10.152Z,3.00
2018-05-09T12:44:37.740Z,2.90
2018-05-09T12:47:05.276Z,3.40
2018-05-09T12:49:33.562Z,3.37
2018-05-09T12:52:01.102Z,3.70
2018-05-09T12:54:30.011Z,4.33
2018-05-09T12:56:57.522Z,3.40
2018-05-09T12:59:25.049Z,3.70
2018-05-09T13:01:52.584Z,3.40
2018-05-09T13:04:20.859Z,3.50
2018-05-09T13:06:49.156Z,3.57
2018-05-09T13:09:16.733Z,3.03
2018-05-09T13:11:44.248Z,3.20
2018-05-09T13:14:11.784Z,2.93
2018-05-09T13:16:39.298Z,2.93
2018-05-09T13:19:06.834Z,3.57
2018-05-09T13:21:35.119Z,3.70
2018-05-09T13:24:03.415Z,3.63
2018-05-09T13:26:30.933Z,3.67
2018-05-09T13:28:59.977Z,3.20
2018-05-09T13:31:27.499Z,4.60
2018-05-09T13:33:55.040Z,4.10
2018-05-09T13:36:24.064Z,3.33
2018-05-09T13:38:52.359Z,3.60
2018-05-09T13:41:19.869Z,3.07
2018-05-09T13:43:47.406Z,3.40
2018-05-09T13:46:14.932Z,3.30
2018-05-09T13:48:43.240Z,3.80
2018-05-09T13:51:10.760Z,3.47
2018-05-09T13:53:39.074Z,3.37
2018-05-09T13:56:06.604Z,3.57
2018-05-09T13:58:34.889Z,3.90
2018-05-09T14:01:03.189Z,3.50
2018-05-09T14:03:30.711Z,3.97
2018-05-09T14:05:59.013Z,4.60
2018-05-09T14:08:26.547Z,4.43
2018-05-09T14:10:54.086Z,4.40
2018-05-09T14:13:21.599Z,4.10
2018-05-09T14:15:49.138Z,3.77
2018-05-09T14:18:18.120Z,3.90
2018-05-09T14:20:45.650Z,3.60
2018-05-09T14:23:13.163Z,3.60
2018-05-09T14:25:41.464Z,3.60
2018-05-09T14:28:08.988Z,3.40
2018-05-09T14:30:37.284Z,3.17
2018-05-09T14:33:04.800Z,3.83
2018-05-09T14:35:32.340Z,3.40
2018-05-09T14:37:59.855Z,3.23
2018-05-09T14:40:28.149Z,4.10
2018-05-09T14:45:46.306Z,3.70
2018-05-09T14:48:13.821Z,3.50
2018-05-09T14:50:41.356Z,3.80
2018-05-09T14:53:08.901Z,3.47
2018-05-09T14:55:36.436Z,3.80
2018-05-09T14:58:04.745Z,4.20
2018-05-09T15:00:32.292Z,3.87
2018-05-09T15:02:59.808Z,3.27
2018-05-09T15:05:27.324Z,3.63
2018-05-09T15:07:54.888Z,3.80
2018-05-09T15:10:22.404Z,3.83
2018-05-09T15:12:49.938Z,3.50
2018-05-09T15:15:17.451Z,3.40
2018-05-09T15:17:45.033Z,3.00
2018-05-09T15:20:12.556Z,3.17
2018-05-09T15:22:40.864Z,3.17
2018-05-09T15:25:08.375Z,3.47
2018-05-09T15:27:35.912Z,3.43
2018-05-09T15:30:03.427Z,3.53
2018-05-09T15:32:31.833Z,3.60
2018-05-09T15:34:59.394Z,3.70
2018-05-09T15:37:26.953Z,3.70
2018-05-09T15:39:54.517Z,3.20
2018-05-09T15:42:22.052Z,3.20
2018-05-09T15:44:50.347Z,3.43
2018-05-09T15:47:17.892Z,4.33
2018-05-09T15:49:46.168Z,3.70
2018-05-09T15:52:13.758Z,3.87
2018-05-09T15:54:41.323Z,4.13
2018-05-09T15:57:08.875Z,4.13
2018-05-09T15:59:36.407Z,3.23
2018-05-09T16:02:04.683Z,3.67
2018-05-09T16:04:32.981Z,4.07
2018-05-09T16:07:00.497Z,4.20
2018-05-09T16:09:28.032Z,3.27
2018-05-09T16:11:55.539Z,3.80
2018-05-09T16:14:23.835Z,3.13
2018-05-09T16:16:51.352Z,4.20
2018-05-09T16:19:18.888Z,3.73
2018-05-09T16:21:46.404Z,3.40
2018-05-09T16:24:14.704Z,4.10
2018-05-09T16:26:42.274Z,4.30
2018-05-09T16:29:09.805Z,4.30
2018-05-09T16:31:38.088Z,3.47
2018-05-09T16:34:06.393Z,3.90
2018-05-09T16:36:33.909Z,4.13
2018-05-09T16:39:02.194Z,3.57
2018-05-09T16:41:30.491Z,3.83
2018-05-09T16:43:58.009Z,3.70
2018-05-09T16:46:25.548Z,3.00
2018-05-09T16:48:53.065Z,4.10
2018-05-09T16:51:20.648Z,4.43
2018-05-09T16:53:48.168Z,4.33
2018-05-09T16:56:16.522Z,4.10
2018-05-09T16:58:44.005Z,4.40
2018-05-09T17:01:12.328Z,4.37
2018-05-09T17:03:39.885Z,5.17
2018-05-09T17:06:07.426Z,4.20
2018-05-09T17:08:35.005Z,4.33
2018-05-09T17:11:02.560Z,4.70
2018-05-09T17:13:30.080Z,4.30
2018-05-09T17:15:57.612Z,5.30
2018-05-09T17:18:25.132Z,4.60
2018-05-09T17:20:52.715Z,4.77
2018-05-09T17:23:20.232Z,4.60
2018-05-09T17:25:48.546Z,4.50
2018-05-09T17:28:16.061Z,4.50
2018-05-09T17:30:44.405Z,4.77
2018-05-09T17:33:11.903Z,4.47
2018-05-09T17:35:40.188Z,4.47
2018-05-09T17:38:08.492Z,5.13
2018-05-09T17:40:36.013Z,5.50
2018-05-09T17:43:03.547Z,5.23
2018-05-09T17:45:31.068Z,5.60
2018-05-09T17:47:58.604Z,5.20
2018-05-09T17:50:26.884Z,5.87
2018-05-09T17:52:55.188Z,5.30
2018-05-09T17:55:22.764Z,5.50
2018-05-09T17:57:50.300Z,5.50
2018-05-09T18:00:18.580Z,5.10
2018-05-09T18:02:46.880Z,5.20
2018-05-09T18:05:14.457Z,4.70
2018-05-09T18:07:42.004Z,5.50
2018-05-09T18:10:09.525Z,5.27
2018-05-09T18:12:37.072Z,5.40
2018-05-09T18:15:04.588Z,4.60
2018-05-09T18:17:32.107Z,4.63
2018-05-09T18:19:59.725Z,6.00
2018-05-09T18:22:27.295Z,4.20
2018-05-09T18:24:54.833Z,4.90
2018-05-09T18:27:23.112Z,5.20
2018-05-09T18:29:50.693Z,5.00
2018-05-09T18:32:18.212Z,4.30
2018-05-09T18:34:45.745Z,4.47
2018-05-09T18:37:13.260Z,4.60
2018-05-09T18:39:40.839Z,5.80
2018-05-09T18:42:08.355Z,5.30
2018-05-09T18:44:35.896Z,5.00
2018-05-09T18:47:03.404Z,5.00
2018-05-09T18:49:31.705Z,5.30
2018-05-09T18:51:59.284Z,4.80
2018-05-09T18:54:26.841Z,4.37
2018-05-09T18:56:54.356Z,4.33
2018-05-09T18:59:21.904Z,4.60
2018-05-09T19:01:49.525Z,4.53
2018-05-09T19:04:17.031Z,4.73
2018-05-09T19:06:44.652Z,4.93
2018-05-09T19:09:12.164Z,6.13
2018-05-09T19:11:39.696Z,5.10
2018-05-09T19:14:07.214Z,5.63
2018-05-09T19:16:34.770Z,5.47
2018-05-09T19:19:03.052Z,4.37
2018-05-09T19:21:31.353Z,4.43
2018-05-09T19:23:58.924Z,4.97
2018-05-09T19:26:26.455Z,4.80
2018-05-09T19:28:54.732Z,4.83
2018-05-09T19:31:23.028Z,5.10
2018-05-09T19:33:50.544Z,5.70
2018-05-09T19:36:18.086Z,6.10
2018-05-09T19:38:45.603Z,5.20
2018-05-09T19:41:13.904Z,5.60
2018-05-09T19:43:41.472Z,5.20
2018-05-09T19:46:09.008Z,5.20
2018-05-09T19:48:37.293Z,5.70
2018-05-09T19:51:04.837Z,4.90
2018-05-09T19:53:33.124Z,5.00
2018-05-09T19:56:01.436Z,5.40
2018-05-09T19:58:28.970Z,5.40
2018-05-09T20:00:57.260Z,5.57
2018-05-09T20:03:24.793Z,4.83
2018-05-09T20:05:52.309Z,5.90
2018-05-09T20:08:19.865Z,4.83
2018-05-09T20:10:47.382Z,4.90
2018-05-09T20:13:14.992Z,4.83
2018-05-09T20:15:42.504Z,4.33
2018-05-09T20:18:10.037Z,4.90
2018-05-09T20:20:37.576Z,4.90
2018-05-09T20:23:05.104Z,4.50
2018-05-09T20:25:33.381Z,3.90
2018-05-09T20:28:01.681Z,4.40
2018-05-09T20:30:34.940Z,4.00
2018-05-09T20:33:02.481Z,3.77
2018-05-09T20:35:29.996Z,4.23
2018-05-09T20:37:57.576Z,5.00
2018-05-09T20:40:25.093Z,4.60
2018-05-09T20:42:53.412Z,4.60
2018-05-09T20:45:20.924Z,4.10
2018-05-09T20:47:48.553Z,4.77
2018-05-09T20:50:16.000Z,4.97
2018-05-09T20:52:43.511Z,5.30
2018-05-09T20:55:22.996Z,5.57
2018-05-09T20:57:50.564Z,5.20
2018-05-09T21:00:18.096Z,4.63
2018-05-09T21:02:46.380Z,4.53
2018-05-09T21:05:14.796Z,4.47
2018-05-09T21:07:54.231Z,3.90
2018-05-09T21:10:21.771Z,5.10
2018-05-09T21:12:50.056Z,4.53
2018-05-09T21:15:18.377Z,5.03
2018-05-09T21:17:45.890Z,4.23
2018-05-09T21:20:14.213Z,4.73
2018-05-09T21:22:41.761Z,4.90
2018-05-09T21:25:09.295Z,4.30
2018-05-09T21:27:37.646Z,4.40
2018-05-09T21:30:05.158Z,4.27
2018-05-09T21:32:32.679Z,4.50
2018-05-09T21:35:01.829Z,4.13
2018-05-09T21:37:29.388Z,4.97
2018-05-09T21:39:56.936Z,4.23
2018-05-09T21:42:24.448Z,4.00
2018-05-09T21:44:51.977Z,3.90
2018-05-09T21:47:19.512Z,4.90
2018-05-09T21:49:47.788Z,3.77
2018-05-09T21:52:16.088Z,4.23
2018-05-09T21:54:43.620Z,5.13
2018-05-09T21:57:11.162Z,4.47
2018-05-09T21:59:38.686Z,6.23
2018-05-09T22:02:06.220Z,5.00
2018-05-09T22:04:34.521Z,6.00
2018-05-09T22:07:02.057Z,4.90
2018-05-09T22:09:30.341Z,4.40
2018-05-09T22:11:58.640Z,4.43
2018-05-09T22:14:26.161Z,4.40
2018-05-09T22:16:53.697Z,5.03
2018-05-09T22:19:21.212Z,5.00
2018-05-09T22:21:48.791Z,4.67
2018-05-09T22:24:16.300Z,5.37
2018-05-09T22:26:43.839Z,4.57
2018-05-09T22:29:11.404Z,4.90
2018-05-09T22:31:38.933Z,4.60
2018-05-09T22:34:06.529Z,4.37
2018-05-09T22:36:34.046Z,4.33
2018-05-09T22:39:02.344Z,4.80
2018-05-09T22:41:29.863Z,5.30
2018-05-09T22:43:57.400Z,5.00
2018-05-09T22:46:24.920Z,5.40
2018-05-09T22:48:52.456Z,5.40
2018-05-09T22:51:20.741Z,4.43
2018-05-09T22:53:49.036Z,4.53
2018-05-09T22:56:17.320Z,5.13
2018-05-09T22:58:44.858Z,5.40
2018-05-09T23:01:13.136Z,5.73
2018-05-09T23:03:41.445Z,5.30
2018-05-09T23:06:08.960Z,5.33
2018-05-09T23:08:36.506Z,5.80
2018-05-09T23:11:04.048Z,5.80
2018-05-09T23:13:31.581Z,4.60
2018-05-09T23:15:59.095Z,5.23
2018-05-09T23:18:26.633Z,5.17
2018-05-09T23:20:54.145Z,5.17
2018-05-09T23:23:22.461Z,5.77
2018-05-09T23:25:49.975Z,4.97
2018-05-09T23:28:17.497Z,5.90
2018-05-09T23:30:45.033Z,5.13
2018-05-09T23:33:12.547Z,5.90
2018-05-09T23:35:40.079Z,6.30
2018-05-09T23:38:07.598Z,6.47
2018-05-09T23:40:35.898Z,6.00
2018-05-09T23:43:03.468Z,6.00
2018-05-09T23:45:31.028Z,6.47
2018-05-09T23:47:58.548Z,5.43
2018-05-09T23:50:26.163Z,5.40
2018-05-09T23:52:53.671Z,6.07
2018-05-09T23:55:21.296Z,5.80
2018-05-09T23:57:48.803Z,6.07
